createdAt,value
2023-11-12T00:00:44.414Z,22.50
2023-11-12T00:03:11.421Z,26.77
2023-11-12T00:05:38.299Z,28.27
2023-11-12T00:08:05.294Z,24.17
2023-11-12T00:10:32.494Z,26.65
2023-11-12T00:13:00.540Z,27.50
2023-11-12T00:15:28.311Z,28.92
2023-11-12T00:17:55.460Z,26.23
2023-11-12T00:20:25.838Z,25.80
2023-11-12T00:22:52.892Z,24.40
2023-11-12T00:25:20.447Z,24.92
2023-11-12T00:27:47.488Z,22.27
2023-11-12T00:32:47.039Z,23.10
2023-11-12T00:35:14.457Z,28.02
2023-11-12T00:37:41.410Z,28.40
2023-11-12T00:40:08.634Z,22.17
2023-11-12T00:42:35.568Z,24.60
2023-11-12T00:45:02.462Z,22.77
2023-11-12T00:47:29.284Z,21.80
2023-11-12T00:49:56.214Z,20.23
2023-11-12T00:52:23.109Z,18.95
2023-11-12T00:54:49.947Z,22.85
2023-11-12T00:57:16.775Z,23.38
2023-11-12T00:59:43.661Z,20.73
2023-11-12T01:02:16.401Z,21.88
2023-11-12T01:04:43.487Z,22.20
2023-11-12T01:07:10.338Z,20.35
2023-11-12T01:09:38.328Z,22.08
2023-11-12T01:12:05.472Z,18.23
2023-11-12T01:14:32.349Z,26.40
2023-11-12T01:16:59.226Z,25.95
2023-11-12T01:19:26.185Z,19.70
2023-11-12T01:21:53.004Z,20.92
2023-11-12T01:24:21.104Z,21.27
2023-11-12T01:26:48.030Z,19.58
2023-11-12T01:29:15.640Z,24.52
2023-11-12T01:31:42.732Z,24.58
2023-11-12T01:34:09.638Z,24.35
2023-11-12T01:36:36.516Z,21.08
2023-11-12T01:39:03.843Z,22.10
2023-11-12T01:41:30.843Z,23.20
2023-11-12T01:43:58.441Z,18.65
2023-11-12T01:46:26.908Z,22.15
2023-11-12T01:48:55.640Z,19.60
2023-11-12T01:51:23.637Z,21.48
2023-11-12T01:53:50.635Z,24.27
2023-11-12T01:56:17.929Z,25.83
2023-11-12T01:58:45.672Z,20.98
2023-11-12T02:01:13.716Z,17.80
2023-11-12T02:03:42.670Z,18.65
2023-11-12T02:06:10.402Z,19.88
2023-11-12T02:08:37.663Z,20.67
2023-11-12T02:11:08.806Z,20.40
2023-11-12T02:13:39.524Z,21.38
2023-11-12T02:16:06.619Z,23.85
2023-11-12T02:18:33.630Z,19.52
2023-11-12T02:21:00.443Z,17.60
2023-11-12T02:23:27.736Z,19.20
2023-11-12T02:25:54.611Z,18.90
2023-11-12T02:28:21.421Z,20.27
2023-11-12T02:30:49.084Z,17.58
2023-11-12T02:33:16.143Z,19.27
2023-11-12T02:35:46.056Z,15.18
2023-11-12T02:38:13.082Z,16.65
2023-11-12T02:40:39.979Z,18.27
2023-11-12T02:43:06.871Z,15.98
2023-11-12T02:45:33.833Z,19.17
2023-11-12T02:48:00.825Z,17.80
2023-11-12T02:50:35.761Z,16.35
2023-11-12T02:53:04.654Z,18.63
2023-11-12T02:55:32.349Z,13.48
2023-11-12T02:57:59.623Z,14.93
2023-11-12T03:00:30.370Z,16.25
2023-11-12T03:03:02.034Z,13.55
2023-11-12T03:05:29.766Z,13.43
2023-11-12T03:07:59.598Z,13.85
2023-11-12T03:10:26.913Z,14.40
2023-11-12T03:12:55.021Z,13.35
2023-11-12T03:15:22.466Z,13.73
2023-11-12T03:17:52.458Z,11.18
2023-11-12T03:20:19.475Z,12.07
2023-11-12T03:22:47.675Z,12.00
2023-11-12T03:25:15.052Z,12.00
2023-11-12T03:27:41.923Z,10.50
2023-11-12T03:30:10.726Z,11.32
2023-11-12T03:32:37.886Z,10.68
2023-11-12T03:35:05.873Z,12.23
2023-11-12T03:37:32.904Z,10.85
2023-11-12T03:39:59.770Z,9.90
2023-11-12T03:42:26.685Z,12.02
2023-11-12T03:44:53.692Z,9.38
2023-11-12T03:47:20.737Z,11.35
2023-11-12T03:49:47.735Z,13.07
2023-11-12T03:52:14.621Z,11.63
2023-11-12T03:54:41.776Z,11.93
2023-11-12T03:57:08.975Z,12.23
2023-11-12T03:59:36.904Z,11.77
2023-11-12T04:02:06.944Z,13.63
2023-11-12T04:04:34.120Z,15.68
2023-11-12T04:07:01.212Z,11.95
2023-11-12T04:09:28.245Z,13.43
2023-11-12T04:11:55.213Z,11.85
2023-11-12T04:14:22.148Z,11.30
2023-11-12T04:16:49.184Z,11.27
2023-11-12T04:19:16.213Z,14.73
2023-11-12T04:21:45.997Z,11.10
2023-11-12T04:24:12.854Z,10.13
2023-11-12T04:26:39.744Z,13.18
2023-11-12T04:29:08.604Z,11.98
2023-11-12T04:31:36.999Z,12.60
2023-11-12T04:34:04.939Z,12.00
2023-11-12T04:36:32.314Z,9.50
2023-11-12T04:38:59.397Z,9.25
2023-11-12T04:41:26.927Z,11.43
2023-11-12T04:43:54.511Z,12.85
2023-11-12T04:46:22.137Z,15.23
2023-11-12T04:48:49.184Z,9.55
2023-11-12T04:51:18.599Z,11.40
2023-11-12T04:53:45.682Z,9.98
2023-11-12T04:56:13.034Z,8.15
2023-11-12T04:58:40.132Z,9.90
2023-11-12T05:01:07.939Z,11.10
2023-11-12T05:03:35.208Z,10.80
2023-11-12T05:06:02.200Z,10.35
2023-11-12T05:08:29.614Z,11.75
2023-11-12T05:10:57.120Z,8.15
2023-11-12T05:13:24.090Z,7.75
2023-11-12T05:15:51.080Z,9.57
2023-11-12T05:18:18.172Z,7.72
2023-11-12T05:20:45.039Z,13.18
2023-11-12T05:23:11.934Z,8.07
2023-11-12T05:25:38.786Z,8.65
2023-11-12T05:28:07.424Z,9.82
2023-11-12T05:30:34.853Z,10.63
2023-11-12T05:33:02.560Z,8.75
2023-11-12T05:35:29.440Z,11.38
2023-11-12T05:37:56.271Z,8.02
2023-11-12T05:40:23.122Z,8.77
2023-11-12T05:42:50.018Z,10.93
2023-11-12T05:45:19.173Z,8.88
2023-11-12T05:47:46.128Z,8.57
2023-11-12T05:50:13.989Z,6.78
2023-11-12T05:52:40.918Z,7.35
2023-11-12T05:55:07.821Z,7.47
2023-11-12T05:57:34.774Z,10.00
2023-11-12T06:00:01.656Z,8.25
2023-11-12T06:02:28.555Z,9.13
2023-11-12T06:04:55.429Z,8.82
2023-11-12T06:07:22.231Z,8.27
2023-11-12T06:09:49.178Z,8.82
2023-11-12T06:12:16.885Z,9.32
2023-11-12T06:14:46.147Z,8.80
2023-11-12T06:17:14.894Z,7.93
2023-11-12T06:19:41.751Z,8.25
2023-11-12T06:22:08.624Z,7.97
2023-11-12T06:24:35.539Z,8.35
2023-11-12T06:27:02.412Z,9.07
2023-11-12T06:29:29.833Z,9.43
2023-11-12T06:31:56.665Z,8.07
2023-11-12T06:34:24.012Z,6.53
2023-11-12T06:36:50.983Z,9.63
2023-11-12T06:39:17.967Z,8.38
2023-11-12T06:41:45.024Z,10.48
2023-11-12T06:44:13.612Z,8.07
2023-11-12T06:46:46.712Z,10.88
2023-11-12T06:49:13.603Z,12.35
2023-11-12T06:51:40.593Z,10.20
2023-11-12T06:54:11.088Z,11.57
2023-11-12T06:56:37.983Z,10.05
2023-11-12T06:59:04.903Z,9.80
2023-11-12T07:01:32.656Z,10.75
2023-11-12T07:04:00.746Z,9.80
2023-11-12T07:06:27.769Z,9.18
2023-11-12T07:08:54.646Z,7.50
2023-11-12T07:11:21.539Z,9.15
2023-11-12T07:13:48.414Z,8.18
2023-11-12T07:16:16.793Z,12.43
2023-11-12T07:18:51.588Z,8.77
2023-11-12T07:21:31.600Z,9.35
2023-11-12T07:23:59.207Z,8.98
2023-11-12T07:26:26.131Z,7.88
2023-11-12T07:28:53.416Z,9.05
2023-11-12T07:31:23.304Z,8.00
2023-11-12T07:33:50.570Z,9.23
2023-11-12T07:36:17.472Z,8.50
2023-11-12T07:38:44.336Z,7.13
2023-11-12T07:41:11.209Z,8.45
2023-11-12T07:43:38.356Z,8.65
2023-11-12T07:46:05.846Z,8.07
2023-11-12T07:48:33.740Z,9.77
2023-11-12T07:51:01.212Z,9.85
2023-11-12T07:53:28.095Z,10.13
2023-11-12T07:55:55.180Z,10.90
2023-11-12T07:58:22.130Z,9.75
2023-11-12T08:00:49.106Z,8.25
2023-11-12T08:03:15.997Z,8.07
2023-11-12T08:05:43.009Z,10.02
2023-11-12T08:08:09.867Z,9.18
2023-11-12T08:10:38.557Z,9.15
2023-11-12T08:13:05.638Z,9.32
2023-11-12T08:15:32.555Z,11.43
2023-11-12T08:17:59.589Z,8.15
2023-11-12T08:20:26.497Z,10.57
2023-11-12T08:22:53.275Z,7.88
2023-11-12T08:25:20.131Z,10.57
2023-11-12T08:27:47.044Z,11.77
2023-11-12T08:30:13.920Z,9.90
2023-11-12T08:32:40.814Z,9.25
2023-11-12T08:35:08.030Z,11.55
2023-11-12T08:37:35.234Z,11.15
2023-11-12T08:40:03.865Z,11.40
2023-11-12T08:42:30.768Z,9.40
2023-11-12T08:44:57.953Z,9.70
2023-11-12T08:47:24.922Z,9.05
2023-11-12T08:49:51.782Z,7.97
2023-11-12T08:52:19.130Z,9.80
2023-11-12T08:54:46.827Z,8.95
2023-11-12T08:57:13.753Z,11.13
2023-11-12T08:59:41.131Z,9.07
2023-11-12T09:02:08.117Z,8.10
2023-11-12T09:04:37.888Z,9.15
2023-11-12T09:07:05.341Z,8.75
2023-11-12T09:09:34.247Z,9.60
2023-11-12T09:12:01.293Z,12.05
2023-11-12T09:14:28.167Z,11.25
2023-11-12T09:16:55.132Z,12.02
2023-11-12T09:19:22.061Z,9.95
2023-11-12T09:21:49.026Z,13.23
2023-11-12T09:24:16.002Z,12.68
2023-11-12T09:26:42.877Z,10.82
2023-11-12T09:29:10.616Z,12.95
2023-11-12T09:31:37.501Z,10.43
2023-11-12T09:34:04.524Z,10.90
2023-11-12T09:36:31.586Z,12.00
2023-11-12T09:38:59.078Z,12.48
2023-11-12T09:41:26.422Z,9.98
2023-11-12T09:43:54.364Z,10.10
2023-11-12T09:46:24.111Z,11.88
2023-11-12T09:48:51.635Z,7.95
2023-11-12T09:51:19.735Z,9.90
2023-11-12T09:53:48.574Z,9.82
2023-11-12T09:56:15.616Z,7.57
2023-11-12T09:58:43.128Z,9.55
2023-11-12T10:01:12.570Z,9.48
2023-11-12T10:03:40.069Z,10.38
2023-11-12T10:06:07.785Z,7.35
2023-11-12T10:08:36.462Z,9.18
2023-11-12T10:11:16.276Z,8.57
2023-11-12T10:13:43.794Z,8.35
2023-11-12T10:16:32.620Z,9.80
2023-11-12T10:19:14.333Z,8.52
2023-11-12T10:21:55.197Z,12.38
2023-11-12T10:24:23.828Z,12.27
2023-11-12T10:26:50.999Z,8.77
2023-11-12T10:29:22.128Z,8.52
2023-11-12T10:31:51.929Z,8.60
2023-11-12T10:34:20.319Z,9.10
2023-11-12T10:37:02.214Z,7.15
2023-11-12T10:39:35.859Z,7.75
2023-11-12T10:42:02.984Z,5.75
2023-11-12T10:44:32.027Z,7.38
2023-11-12T10:47:02.201Z,8.05
2023-11-12T10:49:29.844Z,8.18
2023-11-12T10:51:57.909Z,8.75
2023-11-12T10:54:25.650Z,8.20
2023-11-12T10:56:52.903Z,9.10
2023-11-12T10:59:20.418Z,8.40
2023-11-12T11:01:47.488Z,7.25
2023-11-12T11:04:16.654Z,7.28
2023-11-12T11:06:43.639Z,8.13
2023-11-12T11:09:11.887Z,9.50
2023-11-12T11:11:40.318Z,7.38
2023-11-12T11:14:25.030Z,7.18
2023-11-12T11:16:53.471Z,5.30
2023-11-12T11:19:40.380Z,5.43
2023-11-12T11:22:22.960Z,9.00
2023-11-12T11:24:49.907Z,7.90
2023-11-12T11:27:20.194Z,6.45
2023-11-12T11:30:07.377Z,5.88
2023-11-12T11:32:34.430Z,5.60
2023-11-12T11:35:03.107Z,8.63
2023-11-12T11:37:48.888Z,7.10
2023-11-12T11:40:28.071Z,6.30
2023-11-12T11:43:13.576Z,5.80
2023-11-12T11:45:59.752Z,6.47
2023-11-12T11:48:26.706Z,6.85
2023-11-12T11:50:56.464Z,6.75
2023-11-12T11:53:27.440Z,4.95
2023-11-12T11:56:13.488Z,7.60
2023-11-12T11:58:46.362Z,5.60
2023-11-12T12:01:13.617Z,5.35
2023-11-12T12:03:40.659Z,5.75
2023-11-12T12:06:16.632Z,4.85
2023-11-12T12:08:53.610Z,6.90
2023-11-12T12:11:26.004Z,7.80
2023-11-12T12:14:00.450Z,5.80
2023-11-12T12:16:28.669Z,6.38
2023-11-12T12:18:55.932Z,6.93
2023-11-12T12:21:23.078Z,6.20
2023-11-12T12:23:50.224Z,6.20
2023-11-12T12:26:17.464Z,6.65
2023-11-12T12:28:44.340Z,8.30
2023-11-12T12:31:11.264Z,3.55
2023-11-12T12:33:39.213Z,4.43
2023-11-12T12:36:14.440Z,4.85
2023-11-12T12:39:20.067Z,3.47
2023-11-12T12:41:46.962Z,4.60
2023-11-12T12:44:20.266Z,6.88
2023-11-12T12:46:47.726Z,4.00
2023-11-12T12:49:29.861Z,2.28
2023-11-12T12:51:56.739Z,4.45
2023-11-12T12:54:24.665Z,4.25
2023-11-12T12:56:51.518Z,3.45
2023-11-12T12:59:18.344Z,6.43
2023-11-12T13:01:48.275Z,5.32
2023-11-12T13:04:15.687Z,6.85
2023-11-12T13:06:44.204Z,3.13
2023-11-12T13:09:17.875Z,2.72
2023-11-12T13:11:45.185Z,3.75
2023-11-12T13:14:12.112Z,3.60
2023-11-12T13:16:39.720Z,4.85
2023-11-12T13:19:12.519Z,3.50
2023-11-12T13:21:53.899Z,8.43
2023-11-12T13:24:26.462Z,5.25
2023-11-12T13:26:53.319Z,4.40
2023-11-12T13:29:20.153Z,6.88
2023-11-12T13:31:49.871Z,4.85
2023-11-12T13:34:18.255Z,3.13
2023-11-12T13:36:45.354Z,3.67
2023-11-12T13:39:14.806Z,5.30
2023-11-12T13:41:42.411Z,2.10
2023-11-12T13:44:10.410Z,4.25
2023-11-12T13:46:37.377Z,3.75
2023-11-12T13:49:05.414Z,5.35
2023-11-12T13:51:36.456Z,3.20
2023-11-12T13:54:06.278Z,3.50
2023-11-12T13:56:36.445Z,2.88
2023-11-12T13:59:04.294Z,2.97
2023-11-12T14:01:33.537Z,2.33
2023-11-12T14:04:01.164Z,2.58
2023-11-12T14:06:28.502Z,5.47
2023-11-12T14:08:56.417Z,2.03
2023-11-12T14:11:23.562Z,3.05
2023-11-12T14:13:50.510Z,2.72
2023-11-12T14:16:17.532Z,2.25
2023-11-12T14:18:45.534Z,3.03
2023-11-12T14:21:12.796Z,2.60
2023-11-12T14:23:40.887Z,2.67
2023-11-12T14:26:09.559Z,2.22
2023-11-12T14:28:36.871Z,3.00
2023-11-12T14:31:08.234Z,2.05
2023-11-12T14:36:02.473Z,3.30
2023-11-12T14:38:29.411Z,3.58
2023-11-12T14:40:56.425Z,5.63
2023-11-12T14:43:23.264Z,3.15
2023-11-12T14:45:50.361Z,1.90
2023-11-12T14:48:18.080Z,1.92
2023-11-12T14:50:45.137Z,4.30
2023-11-12T14:53:13.200Z,3.88
2023-11-12T14:55:43.024Z,2.28
2023-11-12T14:58:10.026Z,3.20
2023-11-12T15:00:37.448Z,4.22
2023-11-12T15:03:07.467Z,1.58
2023-11-12T15:05:35.087Z,2.80
2023-11-12T15:08:02.154Z,2.50
2023-11-12T15:10:30.100Z,4.95
2023-11-12T15:12:57.925Z,3.75
2023-11-12T15:15:24.997Z,3.78
2023-11-12T15:17:53.419Z,2.25
2023-11-12T15:20:20.607Z,3.13
2023-11-12T15:22:47.535Z,2.25
2023-11-12T15:25:17.709Z,2.08
2023-11-12T15:27:46.228Z,4.68
2023-11-12T15:30:13.772Z,1.88
2023-11-12T15:32:42.314Z,2.10
2023-11-12T15:35:14.657Z,4.63
2023-11-12T15:37:41.826Z,1.98
2023-11-12T15:40:24.175Z,2.25
2023-11-12T15:42:52.813Z,1.80
2023-11-12T15:45:20.421Z,2.25
2023-11-12T15:47:47.831Z,3.40
2023-11-12T15:50:15.316Z,1.83
2023-11-12T15:52:43.082Z,1.92
2023-11-12T15:55:10.776Z,1.15
2023-11-12T15:57:38.335Z,5.13
2023-11-12T16:00:09.512Z,2.05
2023-11-12T16:02:36.687Z,3.40
2023-11-12T16:05:04.216Z,3.30
2023-11-12T16:07:31.493Z,3.17
2023-11-12T16:09:59.077Z,3.13
2023-11-12T16:12:28.843Z,2.72
2023-11-12T16:14:55.753Z,1.63
2023-11-12T16:17:22.629Z,3.90
2023-11-12T16:19:49.518Z,2.28
2023-11-12T16:22:17.653Z,2.53
2023-11-12T16:24:44.640Z,2.17
2023-11-12T16:27:11.506Z,2.60
2023-11-12T16:29:38.354Z,3.05
2023-11-12T16:32:12.145Z,2.10
2023-11-12T16:34:39.460Z,2.78
2023-11-12T16:37:06.658Z,4.20
2023-11-12T16:39:41.075Z,3.60
2023-11-12T16:42:07.890Z,1.98
2023-11-12T16:44:34.681Z,2.00
2023-11-12T16:47:02.950Z,2.25
2023-11-12T16:49:30.643Z,1.83
2023-11-12T16:51:58.421Z,3.05
2023-11-12T16:54:25.256Z,2.00
2023-11-12T16:56:52.419Z,1.95
2023-11-12T16:59:19.380Z,3.13
2023-11-12T17:01:46.338Z,2.10
2023-11-12T17:04:13.344Z,3.30
2023-11-12T17:06:40.249Z,3.05
2023-11-12T17:09:10.367Z,5.40
2023-11-12T17:11:37.557Z,4.35
2023-11-12T17:14:04.758Z,3.50
2023-11-12T17:16:31.781Z,4.13
2023-11-12T17:19:01.347Z,3.13
2023-11-12T17:21:33.756Z,2.22
2023-11-12T17:24:04.804Z,4.05
2023-11-12T17:26:31.601Z,3.25
2023-11-12T17:28:59.666Z,5.03
2023-11-12T17:31:26.967Z,2.22
2023-11-12T17:33:57.746Z,4.47
2023-11-12T17:36:25.266Z,3.85
2023-11-12T17:38:52.128Z,4.32
2023-11-12T17:41:21.516Z,3.33
2023-11-12T17:43:48.845Z,4.25
2023-11-12T17:46:19.164Z,5.18
2023-11-12T17:48:48.488Z,3.28
2023-11-12T17:51:15.463Z,4.32
2023-11-12T17:53:42.538Z,3.47
2023-11-12T17:56:09.470Z,3.92
2023-11-12T17:58:36.464Z,3.65
2023-11-12T18:01:03.576Z,3.03
2023-11-12T18:03:35.184Z,3.70
2023-11-12T18:06:06.957Z,4.63
2023-11-12T18:08:40.205Z,3.88
2023-11-12T18:11:07.226Z,4.60
2023-11-12T18:13:37.450Z,3.88
2023-11-12T18:16:06.568Z,4.13
2023-11-12T18:18:33.964Z,4.53
2023-11-12T18:21:00.842Z,5.25
2023-11-12T18:23:27.720Z,3.35
2023-11-12T18:25:54.617Z,5.25
2023-11-12T18:28:22.597Z,3.90
2023-11-12T18:30:50.058Z,4.78
2023-11-12T18:33:17.267Z,4.43
2023-11-12T18:35:45.076Z,4.00
2023-11-12T18:38:12.705Z,4.88
2023-11-12T18:40:41.911Z,4.38
2023-11-12T18:43:11.568Z,4.68
2023-11-12T18:45:39.287Z,4.53
2023-11-12T18:48:06.799Z,4.55
2023-11-12T18:50:33.702Z,4.00
2023-11-12T18:53:00.532Z,4.75
2023-11-12T18:55:27.337Z,4.72
2023-11-12T18:57:54.436Z,5.10
2023-11-12T19:00:21.845Z,5.47
2023-11-12T19:02:51.656Z,5.25
2023-11-12T19:05:21.314Z,6.70
2023-11-12T19:07:48.221Z,5.35
2023-11-12T19:10:15.492Z,5.95
2023-11-12T19:12:43.965Z,7.18
2023-11-12T19:15:11.808Z,6.88
2023-11-12T19:17:44.223Z,6.03
2023-11-12T19:20:13.950Z,6.25
2023-11-12T19:22:41.422Z,5.97
2023-11-12T19:25:15.892Z,6.30
2023-11-12T19:27:43.775Z,7.72
2023-11-12T19:30:15.059Z,7.25
2023-11-12T19:32:43.730Z,9.77
2023-11-12T19:35:10.903Z,9.00
2023-11-12T19:37:39.038Z,8.95
2023-11-12T19:40:08.509Z,8.45
2023-11-12T19:42:35.743Z,7.18
2023-11-12T19:45:06.564Z,8.05
2023-11-12T19:47:34.249Z,8.10
2023-11-12T19:50:01.341Z,9.52
2023-11-12T19:52:29.710Z,8.90
2023-11-12T19:54:56.905Z,7.88
2023-11-12T19:57:24.210Z,9.30
2023-11-12T19:59:51.110Z,7.32
2023-11-12T20:02:18.334Z,8.02
2023-11-12T20:04:45.785Z,9.65
2023-11-12T20:07:12.937Z,10.75
2023-11-12T20:09:40.537Z,10.85
2023-11-12T20:12:07.755Z,12.80
2023-11-12T20:14:34.791Z,7.25
2023-11-12T20:17:01.724Z,8.07
2023-11-12T20:19:29.112Z,8.98
2023-11-12T20:21:57.122Z,9.88
2023-11-12T20:24:24.188Z,9.23
2023-11-12T20:26:53.274Z,9.15
2023-11-12T20:29:22.995Z,9.27
2023-11-12T20:31:55.456Z,8.13
2023-11-12T20:34:23.787Z,7.57
2023-11-12T20:36:51.969Z,9.65
2023-11-12T20:39:21.522Z,10.45
2023-11-12T20:41:51.325Z,6.82
2023-11-12T20:44:18.882Z,8.15
2023-11-12T20:46:46.727Z,6.68
2023-11-12T20:49:17.661Z,9.40
2023-11-12T20:51:46.087Z,6.53
2023-11-12T20:54:18.933Z,6.78
2023-11-12T20:56:46.061Z,6.72
2023-11-12T20:59:14.181Z,10.45
2023-11-12T21:01:41.416Z,7.75
2023-11-12T21:04:12.400Z,8.93
2023-11-12T21:06:41.238Z,7.93
2023-11-12T21:09:09.904Z,10.75
2023-11-12T21:11:41.131Z,11.50
2023-11-12T21:14:12.368Z,9.52
2023-11-12T21:16:39.672Z,9.65
2023-11-12T21:19:07.258Z,7.97
2023-11-12T21:21:34.532Z,9.38
2023-11-12T21:24:06.150Z,7.78
2023-11-12T21:26:34.545Z,6.38
2023-11-12T21:29:01.782Z,8.95
2023-11-12T21:31:28.685Z,9.40
2023-11-12T21:33:55.601Z,8.20
2023-11-12T21:36:23.302Z,10.18
2023-11-12T21:38:50.576Z,9.57
2023-11-12T21:41:18.954Z,10.65
2023-11-12T21:43:46.079Z,7.63
2023-11-12T21:46:16.713Z,10.75
2023-11-12T21:48:44.015Z,11.68
2023-11-12T21:51:10.958Z,13.05
2023-11-12T21:53:38.208Z,10.25
2023-11-12T21:56:05.657Z,11.18
2023-11-12T21:58:33.397Z,11.43
2023-11-12T22:01:00.719Z,12.10
2023-11-12T22:03:28.186Z,8.40
2023-11-12T22:05:55.722Z,13.25
2023-11-12T22:08:23.052Z,10.75
2023-11-12T22:10:52.566Z,12.55
2023-11-12T22:13:20.062Z,11.50
2023-11-12T22:15:48.812Z,10.63
2023-11-12T22:18:16.041Z,9.75
2023-11-12T22:20:42.928Z,11.90
2023-11-12T22:23:12.149Z,13.50
2023-11-12T22:25:40.082Z,13.50
2023-11-12T22:28:07.604Z,9.10
2023-11-12T22:30:34.620Z,14.85
2023-11-12T22:33:01.645Z,12.57
2023-11-12T22:35:28.601Z,11.95
2023-11-12T22:37:55.483Z,14.85
2023-11-12T22:40:24.040Z,8.77
2023-11-12T22:42:53.000Z,12.63
2023-11-12T22:45:20.231Z,7.95
2023-11-12T22:47:48.271Z,10.85
2023-11-12T22:50:18.516Z,10.93
2023-11-12T22:52:45.551Z,12.27
2023-11-12T22:55:13.189Z,10.10
2023-11-12T22:57:41.215Z,10.02
2023-11-12T23:00:40.225Z,14.13
2023-11-12T23:03:11.080Z,11.82
2023-11-12T23:05:38.010Z,12.85
2023-11-12T23:08:07.537Z,13.57
2023-11-12T23:10:38.553Z,17.33
2023-11-12T23:13:06.163Z,11.50
2023-11-12T23:15:34.675Z,10.98
2023-11-12T23:18:01.988Z,14.80
2023-11-12T23:20:29.531Z,16.45
2023-11-12T23:22:56.473Z,11.30
2023-11-12T23:25:23.422Z,12.27
2023-11-12T23:27:50.561Z,12.00
2023-11-12T23:30:18.506Z,14.07
2023-11-12T23:32:45.498Z,20.05
2023-11-12T23:35:12.396Z,11.00
2023-11-12T23:37:39.376Z,14.65
2023-11-12T23:40:06.628Z,7.95
2023-11-12T23:42:34.395Z,10.23
2023-11-12T23:45:01.307Z,12.88
2023-11-12T23:47:28.276Z,10.57
2023-11-12T23:49:55.110Z,8.88
2023-11-12T23:52:22.712Z,7.57
2023-11-12T23:54:49.663Z,13.85
2023-11-12T23:57:16.513Z,11.50
2023-11-12T23:59:43.401Z,9.88
